createdAt,value
2022-12-27T00:02:27.458Z,7.31
2022-12-27T00:04:54.663Z,7.27
2022-12-27T00:07:22.169Z,7.26
2022-12-27T00:09:49.258Z,7.24
2022-12-27T00:12:16.749Z,7.23
2022-12-27T00:14:43.813Z,7.19
2022-12-27T00:17:11.203Z,7.20
2022-12-27T00:19:38.342Z,7.24
2022-12-27T00:22:05.746Z,7.19
2022-12-27T00:24:32.937Z,7.15
2022-12-27T00:27:00.273Z,7.18
2022-12-27T00:29:27.479Z,7.13
2022-12-27T00:31:54.837Z,7.19
2022-12-27T00:34:22.061Z,7.19
2022-12-27T00:36:49.431Z,7.19
2022-12-27T00:39:16.526Z,7.20
2022-12-27T00:41:44.211Z,7.21
2022-12-27T00:44:11.304Z,7.25
2022-12-27T00:46:38.678Z,7.25
2022-12-27T00:49:05.839Z,7.27
2022-12-27T00:51:33.330Z,7.28
2022-12-27T00:54:00.629Z,7.29
2022-12-27T00:56:30.315Z,7.32
2022-12-27T00:58:59.728Z,7.32
2022-12-27T01:01:30.212Z,7.34
2022-12-27T01:03:57.819Z,7.35
2022-12-27T01:06:29.073Z,7.30
2022-12-27T01:08:57.285Z,7.32
2022-12-27T01:11:26.886Z,7.28
2022-12-27T01:13:58.364Z,7.32
2022-12-27T01:16:26.635Z,7.32
2022-12-27T01:18:54.389Z,7.32
2022-12-27T01:21:23.550Z,7.31
2022-12-27T01:23:51.046Z,7.36
2022-12-27T01:26:21.190Z,7.35
2022-12-27T01:28:49.395Z,7.37
2022-12-27T01:31:19.452Z,7.41
2022-12-27T01:33:46.899Z,7.39
2022-12-27T01:36:20.448Z,7.42
2022-12-27T01:38:48.709Z,7.40
2022-12-27T01:41:49.987Z,7.39
2022-12-27T01:44:39.155Z,7.38
2022-12-27T01:47:20.312Z,7.39
2022-12-27T01:50:01.426Z,7.43
2022-12-27T01:52:35.044Z,7.38
2022-12-27T01:55:09.171Z,7.36
2022-12-27T01:57:36.850Z,7.43
2022-12-27T02:00:05.196Z,7.43
2022-12-27T02:02:32.723Z,7.45
2022-12-27T02:05:00.091Z,7.49
2022-12-27T02:07:35.488Z,7.50
2022-12-27T02:10:02.793Z,7.48
2022-12-27T02:12:30.248Z,7.47
2022-12-27T02:14:58.586Z,7.46
2022-12-27T02:17:28.814Z,7.48
2022-12-27T02:20:01.937Z,7.53
2022-12-27T02:23:06.886Z,7.55
2022-12-27T02:25:48.563Z,7.54
2022-12-27T02:28:47.050Z,7.56
2022-12-27T02:31:24.728Z,7.52
2022-12-27T02:33:52.485Z,7.50
2022-12-27T02:36:27.061Z,7.50
2022-12-27T02:38:57.207Z,7.43
2022-12-27T02:41:44.445Z,7.50
2022-12-27T02:44:30.859Z,7.45
2022-12-27T02:47:17.081Z,7.42
2022-12-27T02:50:03.084Z,7.48
2022-12-27T02:53:08.763Z,7.37
2022-12-27T02:56:17.081Z,7.32
2022-12-27T02:59:21.900Z,7.29
2022-12-27T03:02:14.984Z,7.27
2022-12-27T03:05:09.158Z,7.23
2022-12-27T03:07:55.274Z,6.61
2022-12-27T03:11:06.014Z,5.90
2022-12-27T03:13:58.535Z,5.48
2022-12-27T03:16:43.563Z,5.18
2022-12-27T03:19:40.673Z,4.96
2022-12-27T03:22:27.508Z,4.71
2022-12-27T03:25:14.885Z,4.44
2022-12-27T03:27:42.789Z,4.36
2022-12-27T03:30:30.245Z,4.29
2022-12-27T03:33:16.767Z,4.22
2022-12-27T03:36:09.370Z,4.16
2022-12-27T03:38:43.455Z,4.03
2022-12-27T03:41:34.203Z,4.08
2022-12-27T03:44:04.736Z,4.02
2022-12-27T03:46:34.350Z,3.97
2022-12-27T03:49:23.374Z,3.99
2022-12-27T03:52:01.398Z,3.99
2022-12-27T03:54:32.135Z,4.02
2022-12-27T03:57:05.915Z,4.03
2022-12-27T03:59:33.325Z,3.96
2022-12-27T04:02:01.667Z,3.95
2022-12-27T04:04:28.958Z,3.90
2022-12-27T04:06:56.457Z,3.88
2022-12-27T04:09:42.826Z,3.88
2022-12-27T04:12:28.922Z,3.80
2022-12-27T04:15:14.828Z,3.84
2022-12-27T04:18:01.044Z,3.83
2022-12-27T04:20:46.804Z,3.86
2022-12-27T04:23:32.809Z,3.81
2022-12-27T04:26:18.554Z,3.76
2022-12-27T04:29:04.410Z,3.74
2022-12-27T04:31:50.471Z,3.73
2022-12-27T04:34:36.615Z,3.69
2022-12-27T04:37:03.915Z,3.69
2022-12-27T04:39:31.818Z,3.67
2022-12-27T04:42:17.453Z,3.70
2022-12-27T04:45:03.588Z,3.63
2022-12-27T04:47:49.694Z,3.62
2022-12-27T04:50:45.221Z,3.62
2022-12-27T04:53:33.249Z,3.61
2022-12-27T04:56:00.940Z,3.64
2022-12-27T04:58:28.375Z,3.63
2022-12-27T05:01:17.336Z,3.55
2022-12-27T05:03:47.140Z,3.65
2022-12-27T05:06:14.922Z,3.63
2022-12-27T05:09:00.984Z,3.55
2022-12-27T05:11:47.247Z,3.55
2022-12-27T05:14:16.422Z,3.45
2022-12-27T05:16:44.568Z,3.37
2022-12-27T05:19:13.528Z,3.30
2022-12-27T05:22:03.850Z,3.19
2022-12-27T05:24:49.879Z,3.19
2022-12-27T05:27:17.554Z,3.19
2022-12-27T05:29:44.684Z,3.12
2022-12-27T05:34:48.562Z,3.01
2022-12-27T05:37:15.967Z,2.97
2022-12-27T05:39:43.125Z,2.85
2022-12-27T05:42:10.439Z,2.81
2022-12-27T05:44:37.595Z,2.81
2022-12-27T05:47:05.073Z,2.79
2022-12-27T05:49:32.256Z,2.69
2022-12-27T05:51:59.668Z,2.69
2022-12-27T05:54:26.789Z,2.63
2022-12-27T05:56:55.307Z,2.56
2022-12-27T05:59:22.495Z,2.54
2022-12-27T06:01:50.195Z,2.55
2022-12-27T06:04:17.473Z,2.46
2022-12-27T06:06:44.785Z,2.42
2022-12-27T06:09:12.585Z,2.32
2022-12-27T06:11:39.950Z,2.29
2022-12-27T06:14:07.070Z,2.21
2022-12-27T06:16:34.514Z,2.24
2022-12-27T06:19:01.728Z,2.18
2022-12-27T06:21:29.237Z,2.12
2022-12-27T06:23:56.637Z,2.05
2022-12-27T06:26:27.417Z,2.05
2022-12-27T06:28:55.844Z,2.02
2022-12-27T06:31:23.706Z,1.95
2022-12-27T06:33:51.919Z,1.89
2022-12-27T06:36:22.157Z,1.86
2022-12-27T06:38:49.727Z,1.84
2022-12-27T06:41:18.498Z,1.86
2022-12-27T06:43:46.551Z,1.79
2022-12-27T06:46:17.784Z,1.79
2022-12-27T06:48:46.470Z,1.72
2022-12-27T06:51:15.736Z,1.74
2022-12-27T06:53:47.232Z,1.67
2022-12-27T06:56:17.383Z,1.68
2022-12-27T06:58:45.249Z,1.67
2022-12-27T07:01:17.907Z,1.67
2022-12-27T07:03:49.831Z,1.67
2022-12-27T07:06:17.595Z,1.71
2022-12-27T07:08:45.584Z,1.71
2022-12-27T07:11:14.256Z,1.71
2022-12-27T07:13:44.040Z,1.69
2022-12-27T07:16:13.352Z,1.67
2022-12-27T07:18:40.783Z,1.69
2022-12-27T07:21:12.977Z,1.67
2022-12-27T07:23:40.371Z,1.58
2022-12-27T07:26:22.748Z,1.67
2022-12-27T07:28:50.108Z,1.61
2022-12-27T07:31:20.312Z,1.65
2022-12-27T07:33:47.472Z,1.71
2022-12-27T07:36:20.715Z,1.73
2022-12-27T07:38:48.416Z,1.74
2022-12-27T07:41:16.156Z,1.75
2022-12-27T07:43:44.401Z,1.78
2022-12-27T07:46:17.977Z,1.76
2022-12-27T07:48:45.417Z,1.83
2022-12-27T07:51:13.750Z,1.89
2022-12-27T07:53:41.228Z,1.95
2022-12-27T07:56:11.451Z,2.01
2022-12-27T07:58:44.399Z,2.06
2022-12-27T08:01:12.969Z,2.18
2022-12-27T08:03:40.726Z,2.24
2022-12-27T08:06:19.186Z,2.32
2022-12-27T08:08:46.601Z,2.43
2022-12-27T08:11:14.056Z,2.49
2022-12-27T08:13:41.160Z,2.54
2022-12-27T08:16:13.644Z,2.59
2022-12-27T08:18:40.782Z,2.65
2022-12-27T08:21:08.267Z,2.64
2022-12-27T08:23:35.447Z,2.66
2022-12-27T08:26:02.829Z,2.72
2022-12-27T08:28:31.773Z,2.70
2022-12-27T08:31:00.256Z,2.76
2022-12-27T08:33:28.015Z,2.76
2022-12-27T08:35:57.233Z,2.80
2022-12-27T08:38:24.564Z,2.78
2022-12-27T08:40:51.927Z,2.74
2022-12-27T08:43:19.207Z,2.87
2022-12-27T08:45:46.789Z,2.93
2022-12-27T08:48:14.793Z,2.94
2022-12-27T08:50:42.337Z,3.00
2022-12-27T08:53:10.628Z,3.05
2022-12-27T08:55:38.027Z,3.10
2022-12-27T08:58:12.209Z,3.14
2022-12-27T09:00:43.393Z,3.09
2022-12-27T09:03:10.869Z,3.04
2022-12-27T09:05:41.943Z,3.18
2022-12-27T09:08:10.538Z,3.22
2022-12-27T09:10:38.852Z,3.24
2022-12-27T09:13:05.956Z,3.21
2022-12-27T09:15:33.310Z,3.24
2022-12-27T09:18:01.497Z,3.28
2022-12-27T09:20:28.776Z,3.35
2022-12-27T09:22:56.176Z,3.35
2022-12-27T09:25:23.547Z,3.38
2022-12-27T09:27:50.854Z,3.48
2022-12-27T09:30:18.344Z,3.52
2022-12-27T09:32:45.489Z,3.54
2022-12-27T09:35:12.834Z,3.48
2022-12-27T09:37:39.985Z,3.60
2022-12-27T09:40:08.081Z,3.62
2022-12-27T09:43:06.220Z,3.63
2022-12-27T09:45:44.058Z,3.59
2022-12-27T09:48:13.541Z,3.61
2022-12-27T09:50:54.068Z,3.61
2022-12-27T09:53:48.123Z,3.65
2022-12-27T09:56:23.172Z,3.71
2022-12-27T09:58:52.866Z,3.72
2022-12-27T10:01:33.002Z,3.77
2022-12-27T10:04:00.659Z,3.79
2022-12-27T10:06:53.684Z,3.80
2022-12-27T10:09:33.444Z,3.84
2022-12-27T10:12:15.149Z,3.81
2022-12-27T10:14:48.150Z,3.89
2022-12-27T10:17:38.475Z,3.87
2022-12-27T10:20:27.327Z,4.00
2022-12-27T10:23:02.834Z,4.02
2022-12-27T10:25:35.219Z,4.07
2022-12-27T10:28:12.757Z,4.07
2022-12-27T10:30:40.479Z,4.13
2022-12-27T10:33:22.009Z,4.16
2022-12-27T10:35:49.056Z,4.16
2022-12-27T10:38:16.403Z,4.14
2022-12-27T10:40:52.304Z,4.18
2022-12-27T10:43:23.758Z,4.20
2022-12-27T10:45:50.897Z,4.19
2022-12-27T10:48:41.509Z,4.21
2022-12-27T10:51:16.696Z,4.26
2022-12-27T10:53:54.597Z,4.28
2022-12-27T10:56:29.403Z,4.34
2022-12-27T10:59:20.063Z,4.38
2022-12-27T11:01:50.155Z,4.51
2022-12-27T11:04:22.721Z,4.56
2022-12-27T11:06:52.473Z,4.59
2022-12-27T11:09:28.007Z,4.65
2022-12-27T11:12:24.220Z,4.63
2022-12-27T11:15:05.069Z,4.63
2022-12-27T11:17:53.315Z,4.59
2022-12-27T11:20:33.580Z,4.39
2022-12-27T11:23:16.563Z,4.42
2022-12-27T11:25:55.918Z,4.38
2022-12-27T11:28:33.731Z,4.31
2022-12-27T11:31:07.425Z,4.33
2022-12-27T11:33:46.464Z,4.30
2022-12-27T11:36:17.021Z,4.30
2022-12-27T11:38:45.151Z,4.31
2022-12-27T11:41:20.865Z,4.32
2022-12-27T11:43:56.741Z,4.30
2022-12-27T11:46:43.226Z,4.35
2022-12-27T11:49:31.527Z,4.42
2022-12-27T11:52:01.882Z,4.43
2022-12-27T11:54:36.529Z,4.45
2022-12-27T11:57:39.714Z,4.44
2022-12-27T12:00:14.236Z,4.39
2022-12-27T12:03:19.087Z,4.41
2022-12-27T12:05:57.228Z,4.38
2022-12-27T12:08:49.801Z,4.34
2022-12-27T12:11:25.200Z,4.27
2022-12-27T12:13:57.503Z,4.26
2022-12-27T12:17:02.139Z,4.28
2022-12-27T12:20:06.786Z,4.25
2022-12-27T12:23:02.945Z,4.10
2022-12-27T12:25:47.391Z,4.04
2022-12-27T12:31:58.585Z,4.00
2022-12-27T12:35:11.063Z,3.94
2022-12-27T12:37:57.419Z,3.85
2022-12-27T12:40:33.206Z,3.86
2022-12-27T12:43:25.891Z,3.87
2022-12-27T12:46:00.384Z,3.79
2022-12-27T12:48:36.390Z,3.75
2022-12-27T12:51:25.332Z,3.70
2022-12-27T12:54:30.053Z,3.70
2022-12-27T12:57:31.779Z,3.65
2022-12-27T13:00:12.734Z,3.63
2022-12-27T13:03:15.683Z,3.60
2022-12-27T13:06:01.943Z,3.60
2022-12-27T13:08:51.144Z,3.53
2022-12-27T13:11:29.453Z,3.55
2022-12-27T13:14:33.855Z,3.50
2022-12-27T13:17:13.347Z,3.50
2022-12-27T13:20:02.272Z,3.42
2022-12-27T13:23:07.074Z,3.44
2022-12-27T13:25:42.930Z,3.49
2022-12-27T13:28:13.188Z,3.47
2022-12-27T13:30:47.463Z,3.44
2022-12-27T13:33:30.433Z,3.43
2022-12-27T13:36:35.042Z,3.44
2022-12-27T13:39:24.825Z,3.41
2022-12-27T13:42:29.641Z,3.39
2022-12-27T13:45:34.592Z,3.40
2022-12-27T13:48:20.248Z,3.38
2022-12-27T13:51:05.553Z,3.44
2022-12-27T13:53:45.066Z,3.41
2022-12-27T13:59:49.139Z,3.41
2022-12-27T14:02:26.157Z,3.40
2022-12-27T14:05:31.162Z,3.43
2022-12-27T14:08:07.786Z,3.41
2022-12-27T14:10:46.456Z,3.42
2022-12-27T14:13:16.952Z,3.41
2022-12-27T14:16:21.773Z,3.37
2022-12-27T14:19:26.696Z,3.35
2022-12-27T14:22:21.788Z,3.35
2022-12-27T14:25:23.039Z,3.27
2022-12-27T14:28:27.592Z,3.31
2022-12-27T14:31:12.910Z,3.36
2022-12-27T14:34:06.937Z,3.33
2022-12-27T14:36:50.039Z,3.30
2022-12-27T14:39:54.671Z,3.32
2022-12-27T14:42:44.063Z,3.30
2022-12-27T14:45:52.326Z,3.28
2022-12-27T14:49:02.117Z,3.27
2022-12-27T14:52:00.050Z,3.25
2022-12-27T14:54:47.110Z,3.25
2022-12-27T14:57:36.212Z,3.26
2022-12-27T15:00:17.126Z,3.27
2022-12-27T15:03:09.017Z,3.28
2022-12-27T15:05:48.841Z,3.28
2022-12-27T15:08:23.245Z,3.16
2022-12-27T15:11:00.072Z,3.30
2022-12-27T15:13:46.111Z,3.33
2022-12-27T15:16:30.138Z,3.25
2022-12-27T15:19:26.385Z,3.17
2022-12-27T15:22:20.165Z,3.21
2022-12-27T15:25:05.871Z,3.21
2022-12-27T15:27:47.418Z,3.24
2022-12-27T15:30:25.406Z,3.24
2022-12-27T15:32:55.783Z,3.24
2022-12-27T15:35:47.092Z,3.23
2022-12-27T15:38:16.662Z,3.24
2022-12-27T15:41:08.827Z,3.19
2022-12-27T15:43:56.472Z,3.13
2022-12-27T15:46:42.666Z,3.17
2022-12-27T15:49:34.816Z,3.20
2022-12-27T15:52:10.505Z,3.23
2022-12-27T15:55:06.355Z,3.19
2022-12-27T15:57:33.560Z,3.23
2022-12-27T16:00:22.825Z,3.21
2022-12-27T16:02:51.343Z,3.18
2022-12-27T16:05:25.788Z,3.20
2022-12-27T16:07:53.497Z,3.16
2022-12-27T16:10:35.418Z,3.16
2022-12-27T16:13:24.008Z,3.20
2022-12-27T16:15:55.285Z,3.14
2022-12-27T16:18:23.966Z,3.15
2022-12-27T16:20:57.748Z,3.17
2022-12-27T16:23:27.418Z,3.12
2022-12-27T16:26:30.239Z,3.17
2022-12-27T16:29:06.983Z,3.18
2022-12-27T16:31:39.189Z,3.14
2022-12-27T16:34:14.178Z,3.18
2022-12-27T16:36:46.692Z,3.17
2022-12-27T16:39:34.697Z,3.20
2022-12-27T16:42:04.708Z,3.22
2022-12-27T16:45:03.092Z,3.22
2022-12-27T16:47:47.287Z,3.19
2022-12-27T16:50:41.536Z,3.19
2022-12-27T16:53:22.123Z,3.22
2022-12-27T16:56:12.388Z,3.24
2022-12-27T16:58:39.932Z,3.27
2022-12-27T17:01:36.235Z,3.30
2022-12-27T17:04:04.391Z,3.36
2022-12-27T17:06:33.505Z,3.32
2022-12-27T17:09:13.451Z,3.37
2022-12-27T17:11:40.696Z,3.39
2022-12-27T17:14:11.433Z,3.32
2022-12-27T17:16:44.736Z,3.37
2022-12-27T17:19:46.145Z,3.33
2022-12-27T17:22:15.764Z,3.37
2022-12-27T17:24:45.542Z,3.37
2022-12-27T17:27:15.794Z,3.41
2022-12-27T17:30:01.580Z,3.38
2022-12-27T17:32:54.032Z,3.38
2022-12-27T17:35:28.561Z,3.43
2022-12-27T17:38:08.237Z,3.41
2022-12-27T17:40:59.839Z,3.36
2022-12-27T17:44:20.950Z,3.38
2022-12-27T17:47:15.182Z,3.30
2022-12-27T17:49:43.753Z,3.22
2022-12-27T17:52:35.871Z,3.22
2022-12-27T17:55:40.432Z,3.24
2022-12-27T17:58:11.120Z,3.25
2022-12-27T18:00:59.635Z,3.24
2022-12-27T18:03:37.962Z,3.23
2022-12-27T18:06:05.492Z,3.25
2022-12-27T18:08:36.216Z,3.22
2022-12-27T18:11:05.453Z,3.23
2022-12-27T18:13:35.409Z,3.28
2022-12-27T18:16:17.591Z,3.19
2022-12-27T18:18:49.846Z,3.21
2022-12-27T18:21:25.698Z,3.13
2022-12-27T18:23:54.241Z,3.18
2022-12-27T18:26:31.867Z,3.22
2022-12-27T18:28:59.429Z,3.18
2022-12-27T18:31:38.145Z,3.21
2022-12-27T18:34:22.684Z,3.16
2022-12-27T18:37:23.201Z,3.13
2022-12-27T18:39:55.083Z,3.23
2022-12-27T18:42:31.622Z,3.30
2022-12-27T18:45:05.463Z,3.20
2022-12-27T18:47:38.407Z,3.25
2022-12-27T18:50:07.197Z,3.14
2022-12-27T18:52:38.592Z,3.22
2022-12-27T18:55:27.606Z,3.26
2022-12-27T18:58:20.614Z,3.25
2022-12-27T19:00:49.338Z,3.28
2022-12-27T19:03:19.127Z,3.23
2022-12-27T19:06:14.536Z,3.23
2022-12-27T19:08:46.956Z,3.21
2022-12-27T19:11:22.022Z,3.23
2022-12-27T19:13:58.984Z,3.23
2022-12-27T19:16:34.517Z,3.26
2022-12-27T19:19:08.780Z,3.23
2022-12-27T19:21:39.647Z,3.25
2022-12-27T19:24:27.747Z,3.27
2022-12-27T19:26:57.339Z,3.25
2022-12-27T19:29:30.411Z,3.11
2022-12-27T19:32:06.531Z,3.22
2022-12-27T19:34:52.116Z,3.25
2022-12-27T19:37:20.032Z,3.21
2022-12-27T19:39:48.486Z,3.22
2022-12-27T19:42:31.011Z,3.20
2022-12-27T19:44:58.405Z,3.18
2022-12-27T19:47:27.566Z,3.24
2022-12-27T19:49:54.983Z,3.25
2022-12-27T19:52:25.405Z,3.21
2022-12-27T19:54:58.944Z,3.22
2022-12-27T19:57:27.148Z,3.17
2022-12-27T19:59:54.627Z,3.23
2022-12-27T20:02:23.581Z,3.22
2022-12-27T20:04:51.531Z,3.25
2022-12-27T20:07:24.739Z,3.20
2022-12-27T20:09:52.506Z,3.26
2022-12-27T20:12:20.696Z,3.17
2022-12-27T20:14:48.838Z,3.18
2022-12-27T20:17:17.345Z,3.13
2022-12-27T20:19:45.349Z,3.12
2022-12-27T20:22:13.699Z,3.15
2022-12-27T20:24:41.928Z,3.12
2022-12-27T20:27:09.767Z,3.10
2022-12-27T20:29:37.126Z,3.13
2022-12-27T20:32:05.718Z,3.11
2022-12-27T20:34:33.623Z,3.12
2022-12-27T20:37:01.376Z,3.14
2022-12-27T20:39:29.659Z,3.15
2022-12-27T20:41:57.515Z,3.17
2022-12-27T20:44:25.557Z,3.12
2022-12-27T20:46:53.207Z,3.15
2022-12-27T20:49:20.964Z,3.08
2022-12-27T20:51:48.746Z,3.17
2022-12-27T20:54:16.917Z,3.12
2022-12-27T20:56:44.756Z,3.13
2022-12-27T20:59:12.771Z,3.10
2022-12-27T21:01:40.595Z,3.14
2022-12-27T21:04:09.044Z,3.17
2022-12-27T21:06:37.129Z,3.13
2022-12-27T21:09:05.819Z,3.14
2022-12-27T21:11:33.448Z,3.16
2022-12-27T21:14:03.008Z,3.17
2022-12-27T21:16:32.832Z,3.21
2022-12-27T21:19:05.199Z,3.23
2022-12-27T21:21:35.080Z,3.21
2022-12-27T21:24:03.740Z,3.17
2022-12-27T21:26:35.805Z,3.22
2022-12-27T21:29:05.295Z,3.22
2022-12-27T21:31:34.169Z,3.17
2022-12-27T21:34:01.545Z,3.19
2022-12-27T21:36:32.003Z,3.18
2022-12-27T21:39:00.129Z,3.17
2022-12-27T21:41:30.842Z,3.16
2022-12-27T21:43:58.589Z,3.10
2022-12-27T21:46:29.110Z,3.15
2022-12-27T21:49:01.902Z,3.13
2022-12-27T21:51:30.277Z,3.12
2022-12-27T21:53:58.496Z,3.05
2022-12-27T21:56:27.158Z,3.07
2022-12-27T21:58:57.486Z,3.01
2022-12-27T22:01:30.567Z,3.06
2022-12-27T22:04:17.928Z,3.06
2022-12-27T22:06:47.424Z,3.10
2022-12-27T22:09:15.810Z,3.06
2022-12-27T22:11:43.756Z,3.08
2022-12-27T22:14:11.344Z,3.02
2022-12-27T22:16:39.840Z,3.00
2022-12-27T22:19:09.510Z,3.06
2022-12-27T22:21:38.501Z,3.03
2022-12-27T22:24:06.559Z,3.02
2022-12-27T22:26:39.505Z,2.98
2022-12-27T22:29:08.207Z,3.03
2022-12-27T22:31:38.174Z,2.92
2022-12-27T22:34:06.292Z,2.95
2022-12-27T22:36:35.123Z,2.96
2022-12-27T22:39:03.128Z,2.98
2022-12-27T22:41:33.432Z,2.99
2022-12-27T22:44:04.190Z,3.01
2022-12-27T22:46:58.539Z,2.98
2022-12-27T22:49:19.558Z,2.97
2022-12-27T22:51:47.224Z,2.92
2022-12-27T22:54:15.174Z,2.88
2022-12-27T22:56:43.399Z,2.92
2022-12-27T22:59:15.349Z,2.94
2022-12-27T23:01:46.226Z,2.96
2022-12-27T23:04:14.212Z,2.82
2022-12-27T23:06:42.141Z,2.92
2022-12-27T23:09:10.124Z,2.93
2022-12-27T23:11:40.834Z,2.98
2022-12-27T23:14:14.024Z,2.97
2022-12-27T23:16:44.084Z,3.02
2022-12-27T23:19:13.404Z,3.03
2022-12-27T23:21:41.442Z,2.98
2022-12-27T23:24:09.986Z,3.01
2022-12-27T23:26:37.810Z,2.99
2022-12-27T23:29:06.313Z,3.02
2022-12-27T23:31:34.082Z,3.00
2022-12-27T23:34:01.482Z,2.99
2022-12-27T23:36:31.346Z,3.04
2022-12-27T23:38:58.663Z,2.98
2022-12-27T23:41:26.829Z,2.98
2022-12-27T23:43:56.087Z,3.02
2022-12-27T23:46:30.214Z,2.99
2022-12-27T23:48:58.657Z,3.03
2022-12-27T23:51:26.570Z,3.02
2022-12-27T23:53:53.999Z,3.00
2022-12-27T23:56:30.099Z,3.03
2022-12-27T23:58:58.734Z,3.06
